sensor_id;sensor_type;location;lat;lon;timestamp;temperature;humidity
10905;DHT22;5505;51.450;9.254;2023-01-01T00:01:46;13.70;99.90
10905;DHT22;5505;51.450;9.254;2023-01-01T00:04:33;13.80;99.90
10905;DHT22;5505;51.450;9.254;2023-01-01T00:07:20;13.80;99.90
10905;DHT22;5505;51.450;9.254;2023-01-01T00:10:08;13.90;99.90
10905;DHT22;5505;51.450;9.254;2023-01-01T00:13:15;13.90;99.90
10905;DHT22;5505;51.450;9.254;2023-01-01T00:16:05;13.90;99.90
10905;DHT22;5505;51.450;9.254;2023-01-01T00:18:52;13.90;99.90
10905;DHT22;5505;51.450;9.254;2023-01-01T00:21:39;14.00;99.90
10905;DHT22;5505;51.450;9.254;2023-01-01T00:24:26;14.00;99.90
10905;DHT22;5505;51.450;9.254;2023-01-01T00:27:12;14.00;99.90
10905;DHT22;5505;51.450;9.254;2023-01-01T00:30:00;14.00;99.90
10905;DHT22;5505;51.450;9.254;2023-01-01T00:32:48;14.00;99.90
10905;DHT22;5505;51.450;9.254;2023-01-01T00:35:35;14.00;99.90
10905;DHT22;5505;51.450;9.254;2023-01-01T00:38:22;13.90;99.90
10905;DHT22;5505;51.450;9.254;2023-01-01T00:41:09;13.90;99.90
10905;DHT22;5505;51.450;9.254;2023-01-01T00:43:56;13.90;99.90
10905;DHT22;5505;51.450;9.254;2023-01-01T00:46:44;13.90;99.90
10905;DHT22;5505;51.450;9.254;2023-01-01T00:49:31;13.80;99.90
10905;DHT22;5505;51.450;9.254;2023-01-01T00:52:17;13.70;99.90
10905;DHT22;5505;51.450;9.254;2023-01-01T00:55:05;13.80;99.90
10905;DHT22;5505;51.450;9.254;2023-01-01T00:57:52;13.80;99.90
10905;DHT22;5505;51.450;9.254;2023-01-01T01:00:38;13.80;99.90
10905;DHT22;5505;51.450;9.254;2023-01-01T01:03:27;13.90;99.90
10905;DHT22;5505;51.450;9.254;2023-01-01T01:06:15;13.80;99.90
10905;DHT22;5505;51.450;9.254;2023-01-01T01:09:02;13.80;99.90
10905;DHT22;5505;51.450;9.254;2023-01-01T01:11:51;13.80;99.90
10905;DHT22;5505;51.450;9.254;2023-01-01T01:14:38;13.80;99.90
10905;DHT22;5505;51.450;9.254;2023-01-01T01:17:25;13.70;99.90
10905;DHT22;5505;51.450;9.254;2023-01-01T01:20:13;13.70;99.90
10905;DHT22;5505;51.450;9.254;2023-01-01T01:22:59;13.70;99.90
10905;DHT22;5505;51.450;9.254;2023-01-01T01:25:46;13.60;99.90
10905;DHT22;5505;51.450;9.254;2023-01-01T01:28:33;13.60;99.90
10905;DHT22;5505;51.450;9.254;2023-01-01T01:31:22;13.60;99.90
10905;DHT22;5505;51.450;9.254;2023-01-01T01:34:09;13.60;99.90
10905;DHT22;5505;51.450;9.254;2023-01-01T01:36:57;13.70;99.90
10905;DHT22;5505;51.450;9.254;2023-01-01T01:39:44;13.60;99.90
10905;DHT22;5505;51.450;9.254;2023-01-01T01:42:30;13.60;99.90
10905;DHT22;5505;51.450;9.254;2023-01-01T01:45:18;13.70;99.90
10905;DHT22;5505;51.450;9.254;2023-01-01T01:48:06;13.60;99.90
10905;DHT22;5505;51.450;9.254;2023-01-01T01:50:53;13.60;99.90
10905;DHT22;5505;51.450;9.254;2023-01-01T01:53:45;13.50;99.90
10905;DHT22;5505;51.450;9.254;2023-01-01T01:56:39;13.50;99.90
10905;DHT22;5505;51.450;9.254;2023-01-01T01:59:31;13.50;99.90
10905;DHT22;5505;51.450;9.254;2023-01-01T02:02:22;13.40;99.90
10905;DHT22;5505;51.450;9.254;2023-01-01T02:05:12;13.50;99.90
10905;DHT22;5505;51.450;9.254;2023-01-01T02:07:59;13.50;99.90
10905;DHT22;5505;51.450;9.254;2023-01-01T02:10:49;13.40;99.90
10905;DHT22;5505;51.450;9.254;2023-01-01T02:13:36;13.40;99.90
10905;DHT22;5505;51.450;9.254;2023-01-01T02:16:28;13.30;99.90
10905;DHT22;5505;51.450;9.254;2023-01-01T02:19:31;13.30;99.90
10905;DHT22;5505;51.450;9.254;2023-01-01T02:22:26;13.30;99.90
10905;DHT22;5505;51.450;9.254;2023-01-01T02:25:22;13.30;99.90
10905;DHT22;5505;51.450;9.254;2023-01-01T02:28:18;13.30;99.90
10905;DHT22;5505;51.450;9.254;2023-01-01T02:31:12;13.20;99.90
10905;DHT22;5505;51.450;9.254;2023-01-01T02:34:02;13.10;99.90
10905;DHT22;5505;51.450;9.254;2023-01-01T02:36:52;13.10;99.90
10905;DHT22;5505;51.450;9.254;2023-01-01T02:39:45;13.20;99.90
10905;DHT22;5505;51.450;9.254;2023-01-01T02:42:33;13.20;99.90
10905;DHT22;5505;51.450;9.254;2023-01-01T02:45:20;13.20;99.90
10905;DHT22;5505;51.450;9.254;2023-01-01T02:51:37;13.10;99.90
10905;DHT22;5505;51.450;9.254;2023-01-01T02:54:32;13.10;99.90
10905;DHT22;5505;51.450;9.254;2023-01-01T02:57:28;13.10;99.90
10905;DHT22;5505;51.450;9.254;2023-01-01T03:00:17;13.10;99.90
10905;DHT22;5505;51.450;9.254;2023-01-01T03:03:12;13.00;99.90
10905;DHT22;5505;51.450;9.254;2023-01-01T03:06:07;13.30;99.90
10905;DHT22;5505;51.450;9.254;2023-01-01T03:09:14;13.40;99.90
10905;DHT22;5505;51.450;9.254;2023-01-01T03:12:08;13.20;99.90
10905;DHT22;5505;51.450;9.254;2023-01-01T03:14:59;13.20;99.90
10905;DHT22;5505;51.450;9.254;2023-01-01T03:17:52;13.10;99.90
10905;DHT22;5505;51.450;9.254;2023-01-01T03:20:44;13.10;99.90
10905;DHT22;5505;51.450;9.254;2023-01-01T03:23:34;13.10;99.90
10905;DHT22;5505;51.450;9.254;2023-01-01T03:26:24;13.00;99.90
10905;DHT22;5505;51.450;9.254;2023-01-01T03:29:12;13.00;99.90
10905;DHT22;5505;51.450;9.254;2023-01-01T03:32:01;13.30;99.90
10905;DHT22;5505;51.450;9.254;2023-01-01T03:34:52;13.00;99.90
10905;DHT22;5505;51.450;9.254;2023-01-01T03:37:40;13.00;99.90
10905;DHT22;5505;51.450;9.254;2023-01-01T03:40:30;12.90;99.90
10905;DHT22;5505;51.450;9.254;2023-01-01T03:43:24;13.60;99.90
10905;DHT22;5505;51.450;9.254;2023-01-01T03:46:20;12.80;99.90
10905;DHT22;5505;51.450;9.254;2023-01-01T03:49:10;12.80;99.90
10905;DHT22;5505;51.450;9.254;2023-01-01T03:52:11;12.90;99.90
10905;DHT22;5505;51.450;9.254;2023-01-01T03:55:04;12.90;99.90
10905;DHT22;5505;51.450;9.254;2023-01-01T03:57:56;13.20;99.90
10905;DHT22;5505;51.450;9.254;2023-01-01T04:00:49;12.90;99.90
10905;DHT22;5505;51.450;9.254;2023-01-01T04:03:37;14.20;99.90
10905;DHT22;5505;51.450;9.254;2023-01-01T04:06:24;12.90;99.90
10905;DHT22;5505;51.450;9.254;2023-01-01T04:09:16;13.00;99.90
10905;DHT22;5505;51.450;9.254;2023-01-01T04:12:06;13.10;99.90
10905;DHT22;5505;51.450;9.254;2023-01-01T04:14:53;13.10;99.90
10905;DHT22;5505;51.450;9.254;2023-01-01T04:17:41;14.20;99.90
10905;DHT22;5505;51.450;9.254;2023-01-01T04:20:27;13.10;99.90
10905;DHT22;5505;51.450;9.254;2023-01-01T04:23:14;13.40;99.90
10905;DHT22;5505;51.450;9.254;2023-01-01T04:26:01;13.10;99.90
10905;DHT22;5505;51.450;9.254;2023-01-01T04:28:48;13.10;99.90
10905;DHT22;5505;51.450;9.254;2023-01-01T04:31:35;13.10;99.90
10905;DHT22;5505;51.450;9.254;2023-01-01T04:34:23;13.10;99.90
10905;DHT22;5505;51.450;9.254;2023-01-01T04:37:10;13.20;99.90
10905;DHT22;5505;51.450;9.254;2023-01-01T04:39:57;13.20;99.90
10905;DHT22;5505;51.450;9.254;2023-01-01T04:42:44;13.20;99.90
10905;DHT22;5505;51.450;9.254;2023-01-01T04:45:30;13.20;99.90
10905;DHT22;5505;51.450;9.254;2023-01-01T04:48:17;13.10;99.90
10905;DHT22;5505;51.450;9.254;2023-01-01T04:51:05;12.60;99.90
10905;DHT22;5505;51.450;9.254;2023-01-01T04:53:52;13.00;99.90
10905;DHT22;5505;51.450;9.254;2023-01-01T04:56:39;13.00;99.90
10905;DHT22;5505;51.450;9.254;2023-01-01T04:59:26;14.20;99.90
10905;DHT22;5505;51.450;9.254;2023-01-01T05:02:14;13.90;99.90
10905;DHT22;5505;51.450;9.254;2023-01-01T05:05:01;13.00;99.90
10905;DHT22;5505;51.450;9.254;2023-01-01T05:07:49;13.00;99.90
10905;DHT22;5505;51.450;9.254;2023-01-01T05:10:35;13.00;99.90
10905;DHT22;5505;51.450;9.254;2023-01-01T05:13:22;13.00;99.90
10905;DHT22;5505;51.450;9.254;2023-01-01T05:16:10;13.00;99.90
10905;DHT22;5505;51.450;9.254;2023-01-01T05:18:57;13.60;99.90
10905;DHT22;5505;51.450;9.254;2023-01-01T05:21:44;13.30;99.90
10905;DHT22;5505;51.450;9.254;2023-01-01T05:24:33;14.10;99.90
10905;DHT22;5505;51.450;9.254;2023-01-01T05:27:20;13.00;99.90
10905;DHT22;5505;51.450;9.254;2023-01-01T05:30:08;12.90;99.90
10905;DHT22;5505;51.450;9.254;2023-01-01T05:32:55;13.00;99.90
10905;DHT22;5505;51.450;9.254;2023-01-01T05:35:42;13.00;99.90
10905;DHT22;5505;51.450;9.254;2023-01-01T05:38:28;13.00;99.90
10905;DHT22;5505;51.450;9.254;2023-01-01T05:41:18;13.00;99.90
10905;DHT22;5505;51.450;9.254;2023-01-01T05:44:05;13.00;99.90
10905;DHT22;5505;51.450;9.254;2023-01-01T05:46:53;12.90;99.90
10905;DHT22;5505;51.450;9.254;2023-01-01T05:49:40;13.00;99.90
10905;DHT22;5505;51.450;9.254;2023-01-01T05:52:26;13.00;99.90
10905;DHT22;5505;51.450;9.254;2023-01-01T05:55:13;13.10;99.90
10905;DHT22;5505;51.450;9.254;2023-01-01T05:58:01;13.00;99.90
10905;DHT22;5505;51.450;9.254;2023-01-01T06:00:48;13.00;99.90
10905;DHT22;5505;51.450;9.254;2023-01-01T06:03:35;13.00;99.90
10905;DHT22;5505;51.450;9.254;2023-01-01T06:06:23;13.00;99.90
10905;DHT22;5505;51.450;9.254;2023-01-01T06:09:10;12.90;99.90
10905;DHT22;5505;51.450;9.254;2023-01-01T06:11:57;12.90;99.90
10905;DHT22;5505;51.450;9.254;2023-01-01T06:14:45;12.90;99.90
10905;DHT22;5505;51.450;9.254;2023-01-01T06:17:32;12.90;99.90
10905;DHT22;5505;51.450;9.254;2023-01-01T06:20:19;12.90;99.90
10905;DHT22;5505;51.450;9.254;2023-01-01T06:23:06;12.90;99.90
10905;DHT22;5505;51.450;9.254;2023-01-01T06:25:52;12.90;99.90
10905;DHT22;5505;51.450;9.254;2023-01-01T06:28:40;12.80;99.90
10905;DHT22;5505;51.450;9.254;2023-01-01T06:31:28;12.80;99.90
10905;DHT22;5505;51.450;9.254;2023-01-01T06:34:15;12.90;99.90
10905;DHT22;5505;51.450;9.254;2023-01-01T06:37:02;12.80;99.90
10905;DHT22;5505;51.450;9.254;2023-01-01T06:39:49;12.90;99.90
10905;DHT22;5505;51.450;9.254;2023-01-01T06:42:35;12.80;99.90
10905;DHT22;5505;51.450;9.254;2023-01-01T06:45:22;12.90;99.90
10905;DHT22;5505;51.450;9.254;2023-01-01T06:48:10;12.70;99.90
10905;DHT22;5505;51.450;9.254;2023-01-01T06:50:57;12.80;99.90
10905;DHT22;5505;51.450;9.254;2023-01-01T06:53:45;12.80;99.90
10905;DHT22;5505;51.450;9.254;2023-01-01T06:56:32;12.80;99.90
10905;DHT22;5505;51.450;9.254;2023-01-01T06:59:18;12.80;99.90
10905;DHT22;5505;51.450;9.254;2023-01-01T07:02:09;12.80;99.90
10905;DHT22;5505;51.450;9.254;2023-01-01T07:04:57;12.80;99.90
10905;DHT22;5505;51.450;9.254;2023-01-01T07:07:44;12.80;99.90
10905;DHT22;5505;51.450;9.254;2023-01-01T07:10:30;12.70;99.90
10905;DHT22;5505;51.450;9.254;2023-01-01T07:13:17;12.70;99.90
10905;DHT22;5505;51.450;9.254;2023-01-01T07:16:05;12.80;99.90
10905;DHT22;5505;51.450;9.254;2023-01-01T07:18:52;12.80;99.90
10905;DHT22;5505;51.450;9.254;2023-01-01T07:21:42;14.00;99.90
10905;DHT22;5505;51.450;9.254;2023-01-01T07:24:29;12.80;99.90
10905;DHT22;5505;51.450;9.254;2023-01-01T07:27:16;12.80;99.90
10905;DHT22;5505;51.450;9.254;2023-01-01T07:30:03;12.80;99.90
10905;DHT22;5505;51.450;9.254;2023-01-01T07:32:53;12.70;99.90
10905;DHT22;5505;51.450;9.254;2023-01-01T07:35:40;12.70;99.90
10905;DHT22;5505;51.450;9.254;2023-01-01T07:38:30;12.70;99.90
10905;DHT22;5505;51.450;9.254;2023-01-01T07:41:17;12.80;99.90
10905;DHT22;5505;51.450;9.254;2023-01-01T07:44:04;12.80;99.90
10905;DHT22;5505;51.450;9.254;2023-01-01T07:47:00;12.80;99.90
10905;DHT22;5505;51.450;9.254;2023-01-01T07:49:47;12.80;99.90
10905;DHT22;5505;51.450;9.254;2023-01-01T07:52:34;12.70;99.90
10905;DHT22;5505;51.450;9.254;2023-01-01T07:55:22;12.70;99.90
10905;DHT22;5505;51.450;9.254;2023-01-01T07:58:10;12.80;99.90
10905;DHT22;5505;51.450;9.254;2023-01-01T08:00:57;12.80;99.90
10905;DHT22;5505;51.450;9.254;2023-01-01T08:03:44;12.80;99.90
10905;DHT22;5505;51.450;9.254;2023-01-01T08:06:36;13.70;99.90
10905;DHT22;5505;51.450;9.254;2023-01-01T08:09:23;12.70;99.90
10905;DHT22;5505;51.450;9.254;2023-01-01T08:12:11;12.70;99.90
10905;DHT22;5505;51.450;9.254;2023-01-01T08:14:58;12.70;99.90
10905;DHT22;5505;51.450;9.254;2023-01-01T08:17:44;12.70;99.90
10905;DHT22;5505;51.450;9.254;2023-01-01T08:20:32;12.70;99.90
10905;DHT22;5505;51.450;9.254;2023-01-01T08:23:19;12.70;99.90
10905;DHT22;5505;51.450;9.254;2023-01-01T08:26:06;12.70;99.90
10905;DHT22;5505;51.450;9.254;2023-01-01T08:28:54;12.80;99.90
10905;DHT22;5505;51.450;9.254;2023-01-01T08:31:41;13.50;99.90
10905;DHT22;5505;51.450;9.254;2023-01-01T08:34:27;12.70;99.90
10905;DHT22;5505;51.450;9.254;2023-01-01T08:37:14;12.70;99.90
10905;DHT22;5505;51.450;9.254;2023-01-01T08:40:01;11.40;99.90
10905;DHT22;5505;51.450;9.254;2023-01-01T08:42:48;12.70;99.90
10905;DHT22;5505;51.450;9.254;2023-01-01T08:45:36;12.80;99.90
10905;DHT22;5505;51.450;9.254;2023-01-01T08:48:23;12.80;99.90
10905;DHT22;5505;51.450;9.254;2023-01-01T08:51:09;12.90;99.90
10905;DHT22;5505;51.450;9.254;2023-01-01T08:53:56;12.90;99.90
10905;DHT22;5505;51.450;9.254;2023-01-01T08:56:43;12.90;99.90
10905;DHT22;5505;51.450;9.254;2023-01-01T08:59:30;12.90;99.90
10905;DHT22;5505;51.450;9.254;2023-01-01T09:02:18;12.90;99.90
10905;DHT22;5505;51.450;9.254;2023-01-01T09:05:05;12.90;99.90
10905;DHT22;5505;51.450;9.254;2023-01-01T09:07:52;12.90;99.90
10905;DHT22;5505;51.450;9.254;2023-01-01T09:10:39;12.90;99.90
10905;DHT22;5505;51.450;9.254;2023-01-01T09:13:28;12.90;99.90
10905;DHT22;5505;51.450;9.254;2023-01-01T09:16:15;12.90;99.90
10905;DHT22;5505;51.450;9.254;2023-01-01T09:19:03;12.90;99.90
10905;DHT22;5505;51.450;9.254;2023-01-01T09:21:50;12.90;99.90
10905;DHT22;5505;51.450;9.254;2023-01-01T09:24:37;12.90;99.90
10905;DHT22;5505;51.450;9.254;2023-01-01T09:27:24;12.90;99.90
10905;DHT22;5505;51.450;9.254;2023-01-01T09:30:11;12.90;99.90
10905;DHT22;5505;51.450;9.254;2023-01-01T09:32:58;13.00;99.90
10905;DHT22;5505;51.450;9.254;2023-01-01T09:35:46;13.00;99.90
10905;DHT22;5505;51.450;9.254;2023-01-01T09:38:33;13.60;99.90
10905;DHT22;5505;51.450;9.254;2023-01-01T09:41:24;13.00;99.90
10905;DHT22;5505;51.450;9.254;2023-01-01T09:44:23;13.10;99.90
10905;DHT22;5505;51.450;9.254;2023-01-01T09:47:23;13.00;99.90
10905;DHT22;5505;51.450;9.254;2023-01-01T09:50:13;13.00;99.90
10905;DHT22;5505;51.450;9.254;2023-01-01T09:53:04;13.00;99.90
10905;DHT22;5505;51.450;9.254;2023-01-01T09:55:54;12.90;99.90
10905;DHT22;5505;51.450;9.254;2023-01-01T09:58:41;12.90;99.90
10905;DHT22;5505;51.450;9.254;2023-01-01T10:01:36;13.00;99.90
10905;DHT22;5505;51.450;9.254;2023-01-01T10:04:33;13.00;99.90
10905;DHT22;5505;51.450;9.254;2023-01-01T10:07:28;13.00;99.90
10905;DHT22;5505;51.450;9.254;2023-01-01T10:10:27;12.90;99.90
10905;DHT22;5505;51.450;9.254;2023-01-01T10:13:22;12.90;99.90
10905;DHT22;5505;51.450;9.254;2023-01-01T10:16:14;12.90;99.90
10905;DHT22;5505;51.450;9.254;2023-01-01T10:19:13;12.90;99.90
10905;DHT22;5505;51.450;9.254;2023-01-01T10:22:07;12.90;99.90
10905;DHT22;5505;51.450;9.254;2023-01-01T10:24:57;12.90;99.90
10905;DHT22;5505;51.450;9.254;2023-01-01T10:27:50;12.90;99.90
10905;DHT22;5505;51.450;9.254;2023-01-01T10:30:39;13.10;99.90
10905;DHT22;5505;51.450;9.254;2023-01-01T10:33:27;12.90;99.90
10905;DHT22;5505;51.450;9.254;2023-01-01T10:36:16;13.00;99.90
10905;DHT22;5505;51.450;9.254;2023-01-01T10:39:07;12.90;99.90
10905;DHT22;5505;51.450;9.254;2023-01-01T10:41:56;13.20;99.90
10905;DHT22;5505;51.450;9.254;2023-01-01T10:44:45;12.90;99.90
10905;DHT22;5505;51.450;9.254;2023-01-01T10:47:32;13.00;99.90
10905;DHT22;5505;51.450;9.254;2023-01-01T10:50:19;13.00;99.90
10905;DHT22;5505;51.450;9.254;2023-01-01T10:53:22;13.10;99.90
10905;DHT22;5505;51.450;9.254;2023-01-01T10:56:11;13.80;99.90
10905;DHT22;5505;51.450;9.254;2023-01-01T10:58:58;13.10;99.90
10905;DHT22;5505;51.450;9.254;2023-01-01T11:01:47;13.20;99.90
10905;DHT22;5505;51.450;9.254;2023-01-01T11:04:33;13.20;99.90
10905;DHT22;5505;51.450;9.254;2023-01-01T11:07:27;13.20;99.90
10905;DHT22;5505;51.450;9.254;2023-01-01T11:10:17;13.30;99.90
10905;DHT22;5505;51.450;9.254;2023-01-01T11:13:14;13.30;99.90
10905;DHT22;5505;51.450;9.254;2023-01-01T11:16:09;13.30;99.90
10905;DHT22;5505;51.450;9.254;2023-01-01T11:19:03;13.30;99.90
10905;DHT22;5505;51.450;9.254;2023-01-01T11:21:50;13.40;99.90
10905;DHT22;5505;51.450;9.254;2023-01-01T11:24:37;13.40;99.90
10905;DHT22;5505;51.450;9.254;2023-01-01T11:27:24;13.40;99.90
10905;DHT22;5505;51.450;9.254;2023-01-01T11:30:25;13.50;99.90
10905;DHT22;5505;51.450;9.254;2023-01-01T11:33:15;13.50;99.90
10905;DHT22;5505;51.450;9.254;2023-01-01T11:36:04;13.50;99.90
10905;DHT22;5505;51.450;9.254;2023-01-01T11:39:07;13.60;99.90
10905;DHT22;5505;51.450;9.254;2023-01-01T11:41:59;13.60;99.90
10905;DHT22;5505;51.450;9.254;2023-01-01T11:44:47;13.60;99.90
10905;DHT22;5505;51.450;9.254;2023-01-01T11:47:37;13.60;99.90
10905;DHT22;5505;51.450;9.254;2023-01-01T11:50:28;13.60;99.90
10905;DHT22;5505;51.450;9.254;2023-01-01T11:53:27;13.60;99.90
10905;DHT22;5505;51.450;9.254;2023-01-01T11:56:17;13.60;99.90
10905;DHT22;5505;51.450;9.254;2023-01-01T11:59:11;13.60;99.90
10905;DHT22;5505;51.450;9.254;2023-01-01T12:02:02;14.30;99.90
10905;DHT22;5505;51.450;9.254;2023-01-01T12:04:53;13.60;99.90
10905;DHT22;5505;51.450;9.254;2023-01-01T12:07:42;13.60;99.90
10905;DHT22;5505;51.450;9.254;2023-01-01T12:10:38;13.60;99.90
10905;DHT22;5505;51.450;9.254;2023-01-01T12:13:28;13.60;99.90
10905;DHT22;5505;51.450;9.254;2023-01-01T12:16:19;13.60;99.90
10905;DHT22;5505;51.450;9.254;2023-01-01T12:19:12;13.60;99.90
10905;DHT22;5505;51.450;9.254;2023-01-01T12:22:03;13.50;99.90
10905;DHT22;5505;51.450;9.254;2023-01-01T12:24:51;13.50;99.90
10905;DHT22;5505;51.450;9.254;2023-01-01T12:27:57;13.50;99.90
10905;DHT22;5505;51.450;9.254;2023-01-01T12:30:54;13.50;99.90
10905;DHT22;5505;51.450;9.254;2023-01-01T12:34:00;13.40;99.90
10905;DHT22;5505;51.450;9.254;2023-01-01T12:36:54;13.40;99.90
10905;DHT22;5505;51.450;9.254;2023-01-01T12:43:02;13.40;99.90
10905;DHT22;5505;51.450;9.254;2023-01-01T12:46:15;13.40;99.90
10905;DHT22;5505;51.450;9.254;2023-01-01T12:49:31;13.40;99.90
10905;DHT22;5505;51.450;9.254;2023-01-01T12:52:33;14.40;99.90
10905;DHT22;5505;51.450;9.254;2023-01-01T12:55:46;13.40;99.90
10905;DHT22;5505;51.450;9.254;2023-01-01T12:58:45;13.40;99.90
10905;DHT22;5505;51.450;9.254;2023-01-01T13:01:35;13.30;99.90
10905;DHT22;5505;51.450;9.254;2023-01-01T13:04:22;13.30;99.90
10905;DHT22;5505;51.450;9.254;2023-01-01T13:07:11;13.40;99.90
10905;DHT22;5505;51.450;9.254;2023-01-01T13:10:09;13.40;99.90
10905;DHT22;5505;51.450;9.254;2023-01-01T13:13:02;13.40;99.90
10905;DHT22;5505;51.450;9.254;2023-01-01T13:15:53;13.40;99.90
10905;DHT22;5505;51.450;9.254;2023-01-01T13:18:40;13.40;99.90
10905;DHT22;5505;51.450;9.254;2023-01-01T13:21:27;13.40;99.90
10905;DHT22;5505;51.450;9.254;2023-01-01T13:24:19;14.20;99.90
10905;DHT22;5505;51.450;9.254;2023-01-01T13:27:08;13.40;99.90
10905;DHT22;5505;51.450;9.254;2023-01-01T13:29:55;13.40;99.90
10905;DHT22;5505;51.450;9.254;2023-01-01T13:33:12;13.50;99.90
10905;DHT22;5505;51.450;9.254;2023-01-01T13:36:29;13.40;99.90
10905;DHT22;5505;51.450;9.254;2023-01-01T13:39:49;13.40;99.90
10905;DHT22;5505;51.450;9.254;2023-01-01T13:42:41;13.40;99.90
10905;DHT22;5505;51.450;9.254;2023-01-01T13:45:33;13.40;99.90
10905;DHT22;5505;51.450;9.254;2023-01-01T13:48:39;13.40;99.90
10905;DHT22;5505;51.450;9.254;2023-01-01T13:51:51;13.40;99.90
10905;DHT22;5505;51.450;9.254;2023-01-01T13:55:01;13.50;99.90
10905;DHT22;5505;51.450;9.254;2023-01-01T14:01:20;13.10;99.90
10905;DHT22;5505;51.450;9.254;2023-01-01T14:04:22;13.30;99.90
10905;DHT22;5505;51.450;9.254;2023-01-01T14:07:20;13.40;99.90
10905;DHT22;5505;51.450;9.254;2023-01-01T14:10:20;13.40;99.90
10905;DHT22;5505;51.450;9.254;2023-01-01T14:13:15;13.40;99.90
10905;DHT22;5505;51.450;9.254;2023-01-01T14:16:03;13.40;99.90
10905;DHT22;5505;51.450;9.254;2023-01-01T14:18:56;13.30;99.90
10905;DHT22;5505;51.450;9.254;2023-01-01T14:21:45;13.30;99.90
10905;DHT22;5505;51.450;9.254;2023-01-01T14:24:32;13.30;99.90
10905;DHT22;5505;51.450;9.254;2023-01-01T14:27:23;14.50;99.90
10905;DHT22;5505;51.450;9.254;2023-01-01T14:30:15;13.20;99.90
10905;DHT22;5505;51.450;9.254;2023-01-01T14:33:02;13.30;99.90
10905;DHT22;5505;51.450;9.254;2023-01-01T14:35:52;13.20;99.90
10905;DHT22;5505;51.450;9.254;2023-01-01T14:38:44;13.20;99.90
10905;DHT22;5505;51.450;9.254;2023-01-01T14:41:32;14.60;99.90
10905;DHT22;5505;51.450;9.254;2023-01-01T14:44:21;13.20;99.90
10905;DHT22;5505;51.450;9.254;2023-01-01T14:47:19;13.10;99.90
10905;DHT22;5505;51.450;9.254;2023-01-01T14:50:14;13.20;99.90
10905;DHT22;5505;51.450;9.254;2023-01-01T14:53:03;13.10;99.90
10905;DHT22;5505;51.450;9.254;2023-01-01T14:55:52;13.10;99.90
10905;DHT22;5505;51.450;9.254;2023-01-01T14:58:39;13.10;99.90
10905;DHT22;5505;51.450;9.254;2023-01-01T15:01:26;13.10;99.90
10905;DHT22;5505;51.450;9.254;2023-01-01T15:04:19;13.10;99.90
10905;DHT22;5505;51.450;9.254;2023-01-01T15:07:19;13.10;99.90
10905;DHT22;5505;51.450;9.254;2023-01-01T15:10:11;13.10;99.90
10905;DHT22;5505;51.450;9.254;2023-01-01T15:12:59;13.00;99.90
10905;DHT22;5505;51.450;9.254;2023-01-01T15:15:51;13.00;99.90
10905;DHT22;5505;51.450;9.254;2023-01-01T15:18:42;12.90;99.90
10905;DHT22;5505;51.450;9.254;2023-01-01T15:21:35;12.90;99.90
10905;DHT22;5505;51.450;9.254;2023-01-01T15:24:23;12.90;99.90
10905;DHT22;5505;51.450;9.254;2023-01-01T15:27:20;12.80;99.90
10905;DHT22;5505;51.450;9.254;2023-01-01T15:30:22;12.80;99.90
10905;DHT22;5505;51.450;9.254;2023-01-01T15:33:15;12.70;99.90
10905;DHT22;5505;51.450;9.254;2023-01-01T15:36:02;12.80;99.90
10905;DHT22;5505;51.450;9.254;2023-01-01T15:38:49;12.70;99.90
10905;DHT22;5505;51.450;9.254;2023-01-01T15:41:41;12.70;99.90
10905;DHT22;5505;51.450;9.254;2023-01-01T15:44:31;13.80;99.90
10905;DHT22;5505;51.450;9.254;2023-01-01T15:47:21;12.60;99.90
10905;DHT22;5505;51.450;9.254;2023-01-01T15:50:19;13.40;99.90
10905;DHT22;5505;51.450;9.254;2023-01-01T15:53:09;12.60;99.90
10905;DHT22;5505;51.450;9.254;2023-01-01T15:56:01;12.60;99.90
10905;DHT22;5505;51.450;9.254;2023-01-01T15:58:52;12.70;99.90
10905;DHT22;5505;51.450;9.254;2023-01-01T16:01:41;12.70;99.90
10905;DHT22;5505;51.450;9.254;2023-01-01T16:04:30;12.60;99.90
10905;DHT22;5505;51.450;9.254;2023-01-01T16:07:19;12.60;99.90
10905;DHT22;5505;51.450;9.254;2023-01-01T16:10:12;12.60;99.90
10905;DHT22;5505;51.450;9.254;2023-01-01T16:12:59;12.60;99.90
10905;DHT22;5505;51.450;9.254;2023-01-01T16:15:50;12.60;99.90
10905;DHT22;5505;51.450;9.254;2023-01-01T16:18:37;12.60;99.90
10905;DHT22;5505;51.450;9.254;2023-01-01T16:21:26;12.50;99.90
10905;DHT22;5505;51.450;9.254;2023-01-01T16:24:14;12.60;99.90
10905;DHT22;5505;51.450;9.254;2023-01-01T16:27:03;12.70;99.90
10905;DHT22;5505;51.450;9.254;2023-01-01T16:29:49;12.60;99.90
10905;DHT22;5505;51.450;9.254;2023-01-01T16:32:36;12.60;99.90
10905;DHT22;5505;51.450;9.254;2023-01-01T16:35:23;12.70;99.90
10905;DHT22;5505;51.450;9.254;2023-01-01T16:38:12;12.70;99.90
10905;DHT22;5505;51.450;9.254;2023-01-01T16:40:58;13.50;99.90
10905;DHT22;5505;51.450;9.254;2023-01-01T16:43:46;12.60;99.90
10905;DHT22;5505;51.450;9.254;2023-01-01T16:46:33;12.60;99.90
10905;DHT22;5505;51.450;9.254;2023-01-01T16:49:20;12.60;99.90
10905;DHT22;5505;51.450;9.254;2023-01-01T16:52:07;12.60;99.90
10905;DHT22;5505;51.450;9.254;2023-01-01T16:54:55;12.60;99.90
10905;DHT22;5505;51.450;9.254;2023-01-01T16:57:42;12.80;99.90
10905;DHT22;5505;51.450;9.254;2023-01-01T17:00:29;12.60;99.90
10905;DHT22;5505;51.450;9.254;2023-01-01T17:03:15;12.60;99.90
10905;DHT22;5505;51.450;9.254;2023-01-01T17:06:03;12.50;99.90
10905;DHT22;5505;51.450;9.254;2023-01-01T17:08:50;12.50;99.90
10905;DHT22;5505;51.450;9.254;2023-01-01T17:11:39;12.60;99.90
10905;DHT22;5505;51.450;9.254;2023-01-01T17:14:25;12.80;99.90
10905;DHT22;5505;51.450;9.254;2023-01-01T17:17:12;12.50;99.90
10905;DHT22;5505;51.450;9.254;2023-01-01T17:19:59;12.50;99.90
10905;DHT22;5505;51.450;9.254;2023-01-01T17:22:46;12.40;99.90
10905;DHT22;5505;51.450;9.254;2023-01-01T17:25:32;12.70;99.90
10905;DHT22;5505;51.450;9.254;2023-01-01T17:28:21;12.40;99.90
10905;DHT22;5505;51.450;9.254;2023-01-01T17:31:09;12.40;99.90
10905;DHT22;5505;51.450;9.254;2023-01-01T17:33:57;12.50;99.90
10905;DHT22;5505;51.450;9.254;2023-01-01T17:36:44;12.50;99.90
10905;DHT22;5505;51.450;9.254;2023-01-01T17:39:31;12.50;99.90
10905;DHT22;5505;51.450;9.254;2023-01-01T17:42:18;12.40;99.90
10905;DHT22;5505;51.450;9.254;2023-01-01T17:45:08;11.50;99.90
10905;DHT22;5505;51.450;9.254;2023-01-01T17:47:54;12.40;99.90
10905;DHT22;5505;51.450;9.254;2023-01-01T17:50:43;12.40;99.90
10905;DHT22;5505;51.450;9.254;2023-01-01T17:53:30;12.60;99.90
10905;DHT22;5505;51.450;9.254;2023-01-01T17:56:18;12.40;99.90
10905;DHT22;5505;51.450;9.254;2023-01-01T17:59:06;12.40;99.90
10905;DHT22;5505;51.450;9.254;2023-01-01T18:01:54;12.40;99.90
10905;DHT22;5505;51.450;9.254;2023-01-01T18:04:41;12.40;99.90
10905;DHT22;5505;51.450;9.254;2023-01-01T18:07:27;12.40;99.90
10905;DHT22;5505;51.450;9.254;2023-01-01T18:10:14;13.20;99.90
10905;DHT22;5505;51.450;9.254;2023-01-01T18:13:01;12.40;99.90
10905;DHT22;5505;51.450;9.254;2023-01-01T18:15:48;12.30;99.90
10905;DHT22;5505;51.450;9.254;2023-01-01T18:18:37;13.60;99.90
10905;DHT22;5505;51.450;9.254;2023-01-01T18:21:24;12.30;99.90